sensor_id;sensor_type;location;lat;lon;timestamp;P1;durP1;ratioP1;P2;durP2;ratioP2
53881;SDS011;39794;55.782;37.452;2023-05-10T00:00:06;12.10;;;5.20;;
53881;SDS011;39794;55.782;37.452;2023-05-10T00:02:40;11.90;;;4.88;;
53881;SDS011;39794;55.782;37.452;2023-05-10T00:05:09;10.18;;;4.90;;
53881;SDS011;39794;55.782;37.452;2023-05-10T00:07:37;10.15;;;4.45;;
53881;SDS011;39794;55.782;37.452;2023-05-10T00:10:06;11.82;;;4.63;;
53881;SDS011;39794;55.782;37.452;2023-05-10T00:12:35;11.23;;;4.90;;
53881;SDS011;39794;55.782;37.452;2023-05-10T00:15:04;9.68;;;4.90;;
53881;SDS011;39794;55.782;37.452;2023-05-10T00:17:33;8.40;;;5.00;;
53881;SDS011;39794;55.782;37.452;2023-05-10T00:20:03;12.40;;;4.78;;
53881;SDS011;39794;55.782;37.452;2023-05-10T00:22:33;7.35;;;4.13;;
53881;SDS011;39794;55.782;37.452;2023-05-10T00:25:02;10.20;;;3.97;;
53881;SDS011;39794;55.782;37.452;2023-05-10T00:27:30;9.38;;;4.78;;
53881;SDS011;39794;55.782;37.452;2023-05-10T00:29:59;9.18;;;4.63;;
53881;SDS011;39794;55.782;37.452;2023-05-10T00:32:33;8.63;;;4.50;;
53881;SDS011;39794;55.782;37.452;2023-05-10T00:35:03;7.45;;;5.03;;
53881;SDS011;39794;55.782;37.452;2023-05-10T00:37:35;12.95;;;5.45;;
53881;SDS011;39794;55.782;37.452;2023-05-10T00:40:05;9.65;;;5.22;;
53881;SDS011;39794;55.782;37.452;2023-05-10T00:42:34;6.50;;;4.53;;
53881;SDS011;39794;55.782;37.452;2023-05-10T00:45:03;8.15;;;5.05;;
53881;SDS011;39794;55.782;37.452;2023-05-10T00:47:32;6.65;;;4.88;;
53881;SDS011;39794;55.782;37.452;2023-05-10T00:50:02;11.68;;;6.15;;
53881;SDS011;39794;55.782;37.452;2023-05-10T00:52:32;13.52;;;5.35;;
53881;SDS011;39794;55.782;37.452;2023-05-10T00:55:01;9.45;;;5.50;;
53881;SDS011;39794;55.782;37.452;2023-05-10T00:57:31;9.15;;;4.95;;
53881;SDS011;39794;55.782;37.452;2023-05-10T00:59:59;9.48;;;5.32;;
53881;SDS011;39794;55.782;37.452;2023-05-10T01:02:31;8.80;;;5.28;;
53881;SDS011;39794;55.782;37.452;2023-05-10T01:05:03;10.55;;;5.70;;
53881;SDS011;39794;55.782;37.452;2023-05-10T01:07:35;11.48;;;5.57;;
53881;SDS011;39794;55.782;37.452;2023-05-10T01:10:04;8.48;;;5.40;;
53881;SDS011;39794;55.782;37.452;2023-05-10T01:12:33;8.68;;;4.85;;
53881;SDS011;39794;55.782;37.452;2023-05-10T01:15:03;7.22;;;5.30;;
53881;SDS011;39794;55.782;37.452;2023-05-10T01:17:33;10.77;;;5.32;;
53881;SDS011;39794;55.782;37.452;2023-05-10T01:20:03;8.48;;;4.80;;
53881;SDS011;39794;55.782;37.452;2023-05-10T01:22:44;8.20;;;5.07;;
53881;SDS011;39794;55.782;37.452;2023-05-10T01:25:32;13.30;;;5.13;;
53881;SDS011;39794;55.782;37.452;2023-05-10T01:28:17;11.68;;;4.97;;
53881;SDS011;39794;55.782;37.452;2023-05-10T01:31:14;9.05;;;5.07;;
53881;SDS011;39794;55.782;37.452;2023-05-10T01:33:55;8.88;;;5.13;;
53881;SDS011;39794;55.782;37.452;2023-05-10T01:36:27;10.88;;;5.05;;
53881;SDS011;39794;55.782;37.452;2023-05-10T01:39:01;11.20;;;5.38;;
53881;SDS011;39794;55.782;37.452;2023-05-10T01:41:36;13.82;;;4.82;;
53881;SDS011;39794;55.782;37.452;2023-05-10T01:44:11;10.75;;;5.20;;
53881;SDS011;39794;55.782;37.452;2023-05-10T01:46:46;13.70;;;5.00;;
53881;SDS011;39794;55.782;37.452;2023-05-10T01:49:22;8.77;;;5.07;;
53881;SDS011;39794;55.782;37.452;2023-05-10T01:51:53;8.13;;;4.97;;
53881;SDS011;39794;55.782;37.452;2023-05-10T01:54:22;7.60;;;4.88;;
53881;SDS011;39794;55.782;37.452;2023-05-10T01:56:55;8.18;;;4.65;;
53881;SDS011;39794;55.782;37.452;2023-05-10T01:59:28;10.85;;;5.03;;
53881;SDS011;39794;55.782;37.452;2023-05-10T02:01:58;12.40;;;5.13;;
53881;SDS011;39794;55.782;37.452;2023-05-10T02:04:28;6.45;;;4.75;;
53881;SDS011;39794;55.782;37.452;2023-05-10T02:06:59;7.68;;;4.78;;
53881;SDS011;39794;55.782;37.452;2023-05-10T02:09:28;14.45;;;4.57;;
53881;SDS011;39794;55.782;37.452;2023-05-10T02:11:58;7.95;;;5.03;;
53881;SDS011;39794;55.782;37.452;2023-05-10T02:14:30;7.05;;;4.55;;
53881;SDS011;39794;55.782;37.452;2023-05-10T02:17:01;10.10;;;4.68;;
53881;SDS011;39794;55.782;37.452;2023-05-10T02:19:32;10.02;;;4.72;;
53881;SDS011;39794;55.782;37.452;2023-05-10T02:22:21;6.72;;;4.03;;
53881;SDS011;39794;55.782;37.452;2023-05-10T02:24:58;7.72;;;4.63;;
53881;SDS011;39794;55.782;37.452;2023-05-10T02:27:30;6.47;;;3.63;;
53881;SDS011;39794;55.782;37.452;2023-05-10T02:30:00;11.63;;;5.00;;
53881;SDS011;39794;55.782;37.452;2023-05-10T02:32:31;8.15;;;4.47;;
53881;SDS011;39794;55.782;37.452;2023-05-10T02:35:02;6.28;;;4.13;;
53881;SDS011;39794;55.782;37.452;2023-05-10T02:37:33;10.27;;;4.63;;
53881;SDS011;39794;55.782;37.452;2023-05-10T02:40:03;6.97;;;4.00;;
53881;SDS011;39794;55.782;37.452;2023-05-10T02:42:34;8.25;;;4.55;;
53881;SDS011;39794;55.782;37.452;2023-05-10T02:45:05;8.45;;;4.40;;
53881;SDS011;39794;55.782;37.452;2023-05-10T02:47:36;8.77;;;4.43;;
53881;SDS011;39794;55.782;37.452;2023-05-10T02:50:07;8.45;;;4.38;;
53881;SDS011;39794;55.782;37.452;2023-05-10T02:52:39;11.55;;;4.22;;
53881;SDS011;39794;55.782;37.452;2023-05-10T02:55:09;8.15;;;4.60;;
53881;SDS011;39794;55.782;37.452;2023-05-10T02:57:40;7.90;;;4.57;;
53881;SDS011;39794;55.782;37.452;2023-05-10T03:00:10;8.77;;;4.60;;
53881;SDS011;39794;55.782;37.452;2023-05-10T03:02:42;9.32;;;4.43;;
53881;SDS011;39794;55.782;37.452;2023-05-10T03:05:12;9.73;;;4.70;;
53881;SDS011;39794;55.782;37.452;2023-05-10T03:07:40;9.15;;;4.95;;
53881;SDS011;39794;55.782;37.452;2023-05-10T03:10:09;10.00;;;4.75;;
53881;SDS011;39794;55.782;37.452;2023-05-10T03:12:52;5.65;;;4.53;;
53881;SDS011;39794;55.782;37.452;2023-05-10T03:15:28;8.68;;;5.07;;
53881;SDS011;39794;55.782;37.452;2023-05-10T03:18:04;7.60;;;4.40;;
53881;SDS011;39794;55.782;37.452;2023-05-10T03:20:38;7.47;;;4.80;;
53881;SDS011;39794;55.782;37.452;2023-05-10T03:23:12;14.13;;;4.05;;
53881;SDS011;39794;55.782;37.452;2023-05-10T03:25:44;9.10;;;5.15;;
53881;SDS011;39794;55.782;37.452;2023-05-10T03:28:16;7.10;;;5.05;;
53881;SDS011;39794;55.782;37.452;2023-05-10T03:30:45;10.07;;;4.57;;
53881;SDS011;39794;55.782;37.452;2023-05-10T03:33:15;9.20;;;5.15;;
53881;SDS011;39794;55.782;37.452;2023-05-10T03:35:46;8.35;;;4.53;;
53881;SDS011;39794;55.782;37.452;2023-05-10T03:38:15;8.35;;;5.07;;
53881;SDS011;39794;55.782;37.452;2023-05-10T03:40:44;7.90;;;4.65;;
53881;SDS011;39794;55.782;37.452;2023-05-10T03:43:13;9.70;;;5.88;;
53881;SDS011;39794;55.782;37.452;2023-05-10T03:45:42;8.73;;;5.25;;
53881;SDS011;39794;55.782;37.452;2023-05-10T03:48:10;10.07;;;5.57;;
53881;SDS011;39794;55.782;37.452;2023-05-10T03:50:43;9.00;;;5.47;;
53881;SDS011;39794;55.782;37.452;2023-05-10T03:53:13;12.93;;;5.20;;
53881;SDS011;39794;55.782;37.452;2023-05-10T03:55:41;9.50;;;4.38;;
53881;SDS011;39794;55.782;37.452;2023-05-10T03:58:10;8.45;;;4.93;;
53881;SDS011;39794;55.782;37.452;2023-05-10T04:00:39;8.02;;;4.88;;
53881;SDS011;39794;55.782;37.452;2023-05-10T04:03:13;7.45;;;4.72;;
53881;SDS011;39794;55.782;37.452;2023-05-10T04:05:42;8.75;;;5.22;;
53881;SDS011;39794;55.782;37.452;2023-05-10T04:08:12;8.52;;;4.93;;
53881;SDS011;39794;55.782;37.452;2023-05-10T04:10:43;8.52;;;4.70;;
53881;SDS011;39794;55.782;37.452;2023-05-10T04:13:11;12.65;;;4.72;;
53881;SDS011;39794;55.782;37.452;2023-05-10T04:15:40;9.48;;;4.95;;
53881;SDS011;39794;55.782;37.452;2023-05-10T04:18:09;10.35;;;4.93;;
53881;SDS011;39794;55.782;37.452;2023-05-10T04:20:38;8.95;;;3.60;;
53881;SDS011;39794;55.782;37.452;2023-05-10T04:23:07;7.40;;;4.13;;
53881;SDS011;39794;55.782;37.452;2023-05-10T04:25:37;10.73;;;4.43;;
53881;SDS011;39794;55.782;37.452;2023-05-10T04:28:06;10.35;;;4.70;;
53881;SDS011;39794;55.782;37.452;2023-05-10T04:30:34;8.68;;;4.57;;
53881;SDS011;39794;55.782;37.452;2023-05-10T04:33:03;11.02;;;4.63;;
53881;SDS011;39794;55.782;37.452;2023-05-10T04:35:31;9.25;;;4.78;;
53881;SDS011;39794;55.782;37.452;2023-05-10T04:38:01;8.30;;;3.80;;
53881;SDS011;39794;55.782;37.452;2023-05-10T04:40:29;13.20;;;5.35;;
53881;SDS011;39794;55.782;37.452;2023-05-10T04:42:59;9.43;;;4.03;;
53881;SDS011;39794;55.782;37.452;2023-05-10T04:45:27;13.43;;;6.05;;
53881;SDS011;39794;55.782;37.452;2023-05-10T04:47:56;8.82;;;4.57;;
53881;SDS011;39794;55.782;37.452;2023-05-10T04:50:24;8.52;;;4.25;;
53881;SDS011;39794;55.782;37.452;2023-05-10T04:52:53;14.73;;;4.75;;
53881;SDS011;39794;55.782;37.452;2023-05-10T04:55:21;7.82;;;4.28;;
53881;SDS011;39794;55.782;37.452;2023-05-10T04:57:50;21.10;;;5.60;;
53881;SDS011;39794;55.782;37.452;2023-05-10T05:00:20;9.93;;;4.95;;
53881;SDS011;39794;55.782;37.452;2023-05-10T05:02:49;8.43;;;4.97;;
53881;SDS011;39794;55.782;37.452;2023-05-10T05:05:21;10.43;;;5.78;;
53881;SDS011;39794;55.782;37.452;2023-05-10T05:07:49;11.00;;;4.53;;
53881;SDS011;39794;55.782;37.452;2023-05-10T05:10:17;10.90;;;4.45;;
53881;SDS011;39794;55.782;37.452;2023-05-10T05:12:46;13.20;;;3.97;;
53881;SDS011;39794;55.782;37.452;2023-05-10T05:15:15;8.55;;;4.50;;
53881;SDS011;39794;55.782;37.452;2023-05-10T05:17:45;13.73;;;4.80;;
53881;SDS011;39794;55.782;37.452;2023-05-10T05:20:13;7.35;;;4.38;;
53881;SDS011;39794;55.782;37.452;2023-05-10T05:22:43;8.38;;;3.70;;
53881;SDS011;39794;55.782;37.452;2023-05-10T05:25:11;7.30;;;3.88;;
53881;SDS011;39794;55.782;37.452;2023-05-10T05:27:40;7.95;;;3.95;;
53881;SDS011;39794;55.782;37.452;2023-05-10T05:30:09;15.13;;;4.47;;
53881;SDS011;39794;55.782;37.452;2023-05-10T05:32:38;10.77;;;3.83;;
53881;SDS011;39794;55.782;37.452;2023-05-10T05:35:08;11.13;;;3.47;;
53881;SDS011;39794;55.782;37.452;2023-05-10T05:37:36;7.25;;;3.85;;
53881;SDS011;39794;55.782;37.452;2023-05-10T05:40:11;10.68;;;3.25;;
53881;SDS011;39794;55.782;37.452;2023-05-10T05:42:40;9.85;;;4.15;;
53881;SDS011;39794;55.782;37.452;2023-05-10T05:45:09;9.52;;;4.13;;
53881;SDS011;39794;55.782;37.452;2023-05-10T05:47:40;7.88;;;4.25;;
53881;SDS011;39794;55.782;37.452;2023-05-10T05:50:10;11.63;;;4.15;;
53881;SDS011;39794;55.782;37.452;2023-05-10T05:52:42;14.68;;;4.13;;
53881;SDS011;39794;55.782;37.452;2023-05-10T05:55:13;9.23;;;3.47;;
53881;SDS011;39794;55.782;37.452;2023-05-10T05:57:42;10.43;;;3.78;;
53881;SDS011;39794;55.782;37.452;2023-05-10T06:00:11;8.70;;;3.95;;
53881;SDS011;39794;55.782;37.452;2023-05-10T06:02:41;11.40;;;3.90;;
53881;SDS011;39794;55.782;37.452;2023-05-10T06:05:11;8.77;;;4.00;;
53881;SDS011;39794;55.782;37.452;2023-05-10T06:07:41;14.40;;;4.32;;
53881;SDS011;39794;55.782;37.452;2023-05-10T06:10:12;9.73;;;4.10;;
53881;SDS011;39794;55.782;37.452;2023-05-10T06:12:41;7.78;;;4.10;;
53881;SDS011;39794;55.782;37.452;2023-05-10T06:15:09;7.03;;;3.80;;
53881;SDS011;39794;55.782;37.452;2023-05-10T06:17:38;6.90;;;3.13;;
53881;SDS011;39794;55.782;37.452;2023-05-10T06:20:08;7.25;;;3.10;;
53881;SDS011;39794;55.782;37.452;2023-05-10T06:22:38;9.48;;;3.53;;
53881;SDS011;39794;55.782;37.452;2023-05-10T06:25:07;9.07;;;3.33;;
53881;SDS011;39794;55.782;37.452;2023-05-10T06:27:42;6.38;;;3.22;;
53881;SDS011;39794;55.782;37.452;2023-05-10T06:30:15;10.97;;;2.80;;
53881;SDS011;39794;55.782;37.452;2023-05-10T06:32:44;6.20;;;2.60;;
53881;SDS011;39794;55.782;37.452;2023-05-10T06:35:13;9.18;;;3.45;;
53881;SDS011;39794;55.782;37.452;2023-05-10T06:37:43;6.07;;;3.33;;
53881;SDS011;39794;55.782;37.452;2023-05-10T06:40:13;5.32;;;2.65;;
53881;SDS011;39794;55.782;37.452;2023-05-10T06:42:42;5.63;;;3.00;;
53881;SDS011;39794;55.782;37.452;2023-05-10T06:45:11;6.63;;;2.80;;
53881;SDS011;39794;55.782;37.452;2023-05-10T06:47:41;10.68;;;2.53;;
53881;SDS011;39794;55.782;37.452;2023-05-10T06:50:10;4.90;;;2.25;;
53881;SDS011;39794;55.782;37.452;2023-05-10T06:52:39;7.05;;;2.88;;
53881;SDS011;39794;55.782;37.452;2023-05-10T06:55:09;6.75;;;2.75;;
53881;SDS011;39794;55.782;37.452;2023-05-10T06:57:38;7.85;;;2.20;;
53881;SDS011;39794;55.782;37.452;2023-05-10T07:00:07;5.47;;;2.78;;
53881;SDS011;39794;55.782;37.452;2023-05-10T07:02:37;3.33;;;2.22;;
53881;SDS011;39794;55.782;37.452;2023-05-10T07:05:06;7.30;;;3.17;;
53881;SDS011;39794;55.782;37.452;2023-05-10T07:07:35;5.40;;;2.80;;
53881;SDS011;39794;55.782;37.452;2023-05-10T07:10:04;5.43;;;2.45;;
53881;SDS011;39794;55.782;37.452;2023-05-10T07:12:35;5.03;;;2.60;;
53881;SDS011;39794;55.782;37.452;2023-05-10T07:15:03;7.43;;;2.47;;
53881;SDS011;39794;55.782;37.452;2023-05-10T07:17:33;6.43;;;2.88;;
53881;SDS011;39794;55.782;37.452;2023-05-10T07:20:02;4.72;;;2.58;;
53881;SDS011;39794;55.782;37.452;2023-05-10T07:22:30;5.72;;;2.50;;
53881;SDS011;39794;55.782;37.452;2023-05-10T07:24:59;10.32;;;4.80;;
53881;SDS011;39794;55.782;37.452;2023-05-10T07:27:30;11.13;;;4.72;;
53881;SDS011;39794;55.782;37.452;2023-05-10T07:30:00;9.07;;;3.03;;
53881;SDS011;39794;55.782;37.452;2023-05-10T07:32:33;4.45;;;2.90;;
53881;SDS011;39794;55.782;37.452;2023-05-10T07:35:01;8.10;;;3.35;;
53881;SDS011;39794;55.782;37.452;2023-05-10T07:37:34;6.03;;;2.80;;
53881;SDS011;39794;55.782;37.452;2023-05-10T07:40:03;5.85;;;2.65;;
53881;SDS011;39794;55.782;37.452;2023-05-10T07:42:33;4.97;;;2.50;;
53881;SDS011;39794;55.782;37.452;2023-05-10T07:45:03;4.72;;;2.83;;
53881;SDS011;39794;55.782;37.452;2023-05-10T07:47:32;9.77;;;3.85;;
53881;SDS011;39794;55.782;37.452;2023-05-10T07:50:01;13.32;;;4.60;;
53881;SDS011;39794;55.782;37.452;2023-05-10T07:52:31;10.40;;;4.43;;
53881;SDS011;39794;55.782;37.452;2023-05-10T07:54:59;7.10;;;3.40;;
53881;SDS011;39794;55.782;37.452;2023-05-10T07:57:30;11.35;;;4.72;;
53881;SDS011;39794;55.782;37.452;2023-05-10T07:59:58;8.80;;;3.83;;
53881;SDS011;39794;55.782;37.452;2023-05-10T08:02:32;4.97;;;3.08;;
53881;SDS011;39794;55.782;37.452;2023-05-10T08:05:01;8.75;;;2.63;;
53881;SDS011;39794;55.782;37.452;2023-05-10T08:07:29;4.82;;;2.75;;
53881;SDS011;39794;55.782;37.452;2023-05-10T08:09:58;16.05;;;3.92;;
53881;SDS011;39794;55.782;37.452;2023-05-10T08:12:32;5.20;;;2.77;;
53881;SDS011;39794;55.782;37.452;2023-05-10T08:15:01;4.78;;;1.83;;
53881;SDS011;39794;55.782;37.452;2023-05-10T08:17:33;2.53;;;1.92;;
53881;SDS011;39794;55.782;37.452;2023-05-10T08:20:01;3.35;;;1.92;;
53881;SDS011;39794;55.782;37.452;2023-05-10T08:22:30;3.78;;;1.55;;
53881;SDS011;39794;55.782;37.452;2023-05-10T08:24:59;3.88;;;2.00;;
53881;SDS011;39794;55.782;37.452;2023-05-10T08:27:29;5.35;;;2.10;;
53881;SDS011;39794;55.782;37.452;2023-05-10T08:29:58;3.72;;;1.83;;
53881;SDS011;39794;55.782;37.452;2023-05-10T08:32:33;2.67;;;1.90;;
53881;SDS011;39794;55.782;37.452;2023-05-10T08:35:05;2.40;;;1.50;;
53881;SDS011;39794;55.782;37.452;2023-05-10T08:37:33;3.58;;;1.67;;
53881;SDS011;39794;55.782;37.452;2023-05-10T08:40:02;6.13;;;3.03;;
53881;SDS011;39794;55.782;37.452;2023-05-10T08:42:32;2.97;;;1.73;;
53881;SDS011;39794;55.782;37.452;2023-05-10T08:45:03;3.97;;;1.63;;
53881;SDS011;39794;55.782;37.452;2023-05-10T08:47:35;3.33;;;1.20;;
53881;SDS011;39794;55.782;37.452;2023-05-10T08:50:06;2.28;;;1.10;;
53881;SDS011;39794;55.782;37.452;2023-05-10T08:52:35;2.08;;;1.20;;
53881;SDS011;39794;55.782;37.452;2023-05-10T08:55:07;2.80;;;1.50;;
53881;SDS011;39794;55.782;37.452;2023-05-10T08:57:35;1.95;;;1.15;;
53881;SDS011;39794;55.782;37.452;2023-05-10T09:00:05;6.15;;;1.67;;
53881;SDS011;39794;55.782;37.452;2023-05-10T09:02:36;4.85;;;1.73;;
53881;SDS011;39794;55.782;37.452;2023-05-10T09:05:06;5.85;;;1.40;;
53881;SDS011;39794;55.782;37.452;2023-05-10T09:07:37;3.60;;;1.42;;
53881;SDS011;39794;55.782;37.452;2023-05-10T09:10:06;3.67;;;1.38;;
53881;SDS011;39794;55.782;37.452;2023-05-10T09:12:39;3.42;;;1.13;;
53881;SDS011;39794;55.782;37.452;2023-05-10T09:15:07;5.88;;;1.63;;
53881;SDS011;39794;55.782;37.452;2023-05-10T09:17:38;1.80;;;1.30;;
53881;SDS011;39794;55.782;37.452;2023-05-10T09:20:16;4.53;;;1.23;;
53881;SDS011;39794;55.782;37.452;2023-05-10T09:22:46;1.55;;;1.20;;
53881;SDS011;39794;55.782;37.452;2023-05-10T09:25:15;2.60;;;1.00;;
53881;SDS011;39794;55.782;37.452;2023-05-10T09:27:45;3.47;;;1.48;;
53881;SDS011;39794;55.782;37.452;2023-05-10T09:30:15;4.63;;;1.15;;
53881;SDS011;39794;55.782;37.452;2023-05-10T09:32:47;2.70;;;1.02;;
53881;SDS011;39794;55.782;37.452;2023-05-10T09:35:19;3.03;;;1.30;;
53881;SDS011;39794;55.782;37.452;2023-05-10T09:37:49;6.10;;;1.10;;
53881;SDS011;39794;55.782;37.452;2023-05-10T09:40:19;2.33;;;1.30;;
53881;SDS011;39794;55.782;37.452;2023-05-10T09:42:51;2.28;;;1.02;;
53881;SDS011;39794;55.782;37.452;2023-05-10T09:45:21;4.53;;;1.73;;
53881;SDS011;39794;55.782;37.452;2023-05-10T09:47:52;2.85;;;1.40;;
53881;SDS011;39794;55.782;37.452;2023-05-10T09:50:24;2.63;;;1.48;;
53881;SDS011;39794;55.782;37.452;2023-05-10T09:52:54;4.78;;;1.92;;
53881;SDS011;39794;55.782;37.452;2023-05-10T09:55:26;4.40;;;1.50;;
53881;SDS011;39794;55.782;37.452;2023-05-10T09:58:07;4.68;;;1.70;;
53881;SDS011;39794;55.782;37.452;2023-05-10T10:00:38;7.85;;;2.03;;
53881;SDS011;39794;55.782;37.452;2023-05-10T10:03:13;4.95;;;1.85;;
53881;SDS011;39794;55.782;37.452;2023-05-10T10:05:43;5.18;;;1.90;;
53881;SDS011;39794;55.782;37.452;2023-05-10T10:08:12;6.47;;;2.05;;
53881;SDS011;39794;55.782;37.452;2023-05-10T10:10:41;4.18;;;1.80;;
53881;SDS011;39794;55.782;37.452;2023-05-10T10:13:17;3.10;;;1.50;;
53881;SDS011;39794;55.782;37.452;2023-05-10T10:15:45;4.35;;;2.53;;
53881;SDS011;39794;55.782;37.452;2023-05-10T10:18:19;4.35;;;2.65;;
53881;SDS011;39794;55.782;37.452;2023-05-10T10:20:54;3.67;;;2.20;;
53881;SDS011;39794;55.782;37.452;2023-05-10T10:23:23;4.90;;;1.73;;
53881;SDS011;39794;55.782;37.452;2023-05-10T10:25:52;3.28;;;2.05;;
53881;SDS011;39794;55.782;37.452;2023-05-10T10:28:24;4.07;;;1.88;;
53881;SDS011;39794;55.782;37.452;2023-05-10T10:30:56;5.05;;;2.10;;
53881;SDS011;39794;55.782;37.452;2023-05-10T10:33:49;4.45;;;2.38;;
53881;SDS011;39794;55.782;37.452;2023-05-10T10:36:24;5.43;;;2.30;;
53881;SDS011;39794;55.782;37.452;2023-05-10T10:38:59;7.25;;;1.73;;
53881;SDS011;39794;55.782;37.452;2023-05-10T10:41:30;3.58;;;2.03;;
53881;SDS011;39794;55.782;37.452;2023-05-10T10:47:21;5.63;;;1.70;;
53881;SDS011;39794;55.782;37.452;2023-05-10T10:50:02;3.97;;;1.92;;
53881;SDS011;39794;55.782;37.452;2023-05-10T10:52:32;4.20;;;1.70;;
53881;SDS011;39794;55.782;37.452;2023-05-10T10:55:03;3.63;;;1.92;;
53881;SDS011;39794;55.782;37.452;2023-05-10T10:57:43;4.25;;;1.70;;
53881;SDS011;39794;55.782;37.452;2023-05-10T11:00:19;5.60;;;1.60;;
53881;SDS011;39794;55.782;37.452;2023-05-10T11:02:49;2.45;;;1.67;;
53881;SDS011;39794;55.782;37.452;2023-05-10T11:08:14;6.55;;;1.52;;
53881;SDS011;39794;55.782;37.452;2023-05-10T11:10:51;2.50;;;1.70;;
53881;SDS011;39794;55.782;37.452;2023-05-10T11:13:30;5.10;;;1.60;;
53881;SDS011;39794;55.782;37.452;2023-05-10T11:16:14;6.00;;;1.90;;
53881;SDS011;39794;55.782;37.452;2023-05-10T11:18:57;3.60;;;1.65;;
53881;SDS011;39794;55.782;37.452;2023-05-10T11:21:30;2.47;;;1.90;;
53881;SDS011;39794;55.782;37.452;2023-05-10T11:23:59;3.65;;;1.65;;
53881;SDS011;39794;55.782;37.452;2023-05-10T11:26:33;3.25;;;1.70;;
53881;SDS011;39794;55.782;37.452;2023-05-10T11:29:03;3.45;;;1.55;;
53881;SDS011;39794;55.782;37.452;2023-05-10T11:31:32;4.28;;;1.77;;
53881;SDS011;39794;55.782;37.452;2023-05-10T11:34:00;7.10;;;1.58;;
53881;SDS011;39794;55.782;37.452;2023-05-10T11:36:32;2.28;;;1.40;;
53881;SDS011;39794;55.782;37.452;2023-05-10T11:39:03;7.18;;;2.97;;
53881;SDS011;39794;55.782;37.452;2023-05-10T11:41:32;5.55;;;1.50;;
53881;SDS011;39794;55.782;37.452;2023-05-10T11:44:01;5.05;;;1.77;;
53881;SDS011;39794;55.782;37.452;2023-05-10T11:46:29;4.38;;;1.80;;
53881;SDS011;39794;55.782;37.452;2023-05-10T11:48:59;5.72;;;1.52;;
53881;SDS011;39794;55.782;37.452;2023-05-10T11:51:34;2.15;;;1.58;;
53881;SDS011;39794;55.782;37.452;2023-05-10T11:54:05;3.72;;;1.65;;
53881;SDS011;39794;55.782;37.452;2023-05-10T11:56:37;2.10;;;1.90;;
53881;SDS011;39794;55.782;37.452;2023-05-10T11:59:06;3.42;;;1.60;;
53881;SDS011;39794;55.782;37.452;2023-05-10T12:01:35;2.35;;;1.70;;
53881;SDS011;39794;55.782;37.452;2023-05-10T12:04:04;4.45;;;1.65;;
53881;SDS011;39794;55.782;37.452;2023-05-10T12:06:37;4.82;;;2.08;;
53881;SDS011;39794;55.782;37.452;2023-05-10T12:09:09;5.63;;;1.70;;
53881;SDS011;39794;55.782;37.452;2023-05-10T12:11:39;4.85;;;1.80;;
53881;SDS011;39794;55.782;37.452;2023-05-10T12:14:10;3.25;;;1.42;;
53881;SDS011;39794;55.782;37.452;2023-05-10T12:16:39;5.40;;;1.60;;
53881;SDS011;39794;55.782;37.452;2023-05-10T12:19:08;3.15;;;1.63;;
53881;SDS011;39794;55.782;37.452;2023-05-10T12:21:39;5.03;;;1.73;;
53881;SDS011;39794;55.782;37.452;2023-05-10T12:24:13;4.15;;;1.60;;
53881;SDS011;39794;55.782;37.452;2023-05-10T12:26:44;5.07;;;1.38;;
53881;SDS011;39794;55.782;37.452;2023-05-10T12:29:15;3.30;;;1.77;;
53881;SDS011;39794;55.782;37.452;2023-05-10T12:31:49;4.82;;;1.63;;
53881;SDS011;39794;55.782;37.452;2023-05-10T12:34:30;3.08;;;1.42;;
53881;SDS011;39794;55.782;37.452;2023-05-10T12:37:01;2.95;;;1.88;;
53881;SDS011;39794;55.782;37.452;2023-05-10T12:39:38;4.35;;;1.70;;
53881;SDS011;39794;55.782;37.452;2023-05-10T12:42:08;5.47;;;2.70;;
53881;SDS011;39794;55.782;37.452;2023-05-10T12:44:39;2.45;;;1.52;;
53881;SDS011;39794;55.782;37.452;2023-05-10T12:47:08;5.65;;;1.60;;
53881;SDS011;39794;55.782;37.452;2023-05-10T12:49:37;4.88;;;1.65;;
53881;SDS011;39794;55.782;37.452;2023-05-10T12:52:10;8.80;;;1.80;;
53881;SDS011;39794;55.782;37.452;2023-05-10T12:54:40;7.13;;;1.70;;
53881;SDS011;39794;55.782;37.452;2023-05-10T12:57:10;4.25;;;1.83;;
53881;SDS011;39794;55.782;37.452;2023-05-10T12:59:38;4.63;;;1.58;;
53881;SDS011;39794;55.782;37.452;2023-05-10T13:02:07;3.28;;;1.63;;
53881;SDS011;39794;55.782;37.452;2023-05-10T13:04:36;5.70;;;2.95;;
53881;SDS011;39794;55.782;37.452;2023-05-10T13:07:06;3.00;;;1.25;;
53881;SDS011;39794;55.782;37.452;2023-05-10T13:09:36;4.07;;;1.45;;
53881;SDS011;39794;55.782;37.452;2023-05-10T13:12:05;2.85;;;1.50;;
53881;SDS011;39794;55.782;37.452;2023-05-10T13:14:36;4.15;;;1.42;;
53881;SDS011;39794;55.782;37.452;2023-05-10T13:17:04;4.88;;;1.80;;
53881;SDS011;39794;55.782;37.452;2023-05-10T13:19:32;4.50;;;2.08;;
53881;SDS011;39794;55.782;37.452;2023-05-10T13:22:01;6.05;;;1.65;;
53881;SDS011;39794;55.782;37.452;2023-05-10T13:24:30;2.58;;;1.45;;
53881;SDS011;39794;55.782;37.452;2023-05-10T13:27:00;3.88;;;1.48;;
53881;SDS011;39794;55.782;37.452;2023-05-10T13:29:29;5.57;;;1.80;;
53881;SDS011;39794;55.782;37.452;2023-05-10T13:31:57;5.03;;;2.70;;
53881;SDS011;39794;55.782;37.452;2023-05-10T13:34:27;3.75;;;1.98;;
53881;SDS011;39794;55.782;37.452;2023-05-10T13:36:56;2.30;;;1.50;;
53881;SDS011;39794;55.782;37.452;2023-05-10T13:39:24;4.72;;;1.80;;
53881;SDS011;39794;55.782;37.452;2023-05-10T13:41:52;3.55;;;1.60;;
53881;SDS011;39794;55.782;37.452;2023-05-10T13:44:22;2.15;;;1.50;;
53881;SDS011;39794;55.782;37.452;2023-05-10T13:46:51;4.60;;;1.52;;
53881;SDS011;39794;55.782;37.452;2023-05-10T13:49:20;4.43;;;1.35;;
53881;SDS011;39794;55.782;37.452;2023-05-10T13:51:49;3.85;;;1.42;;
53881;SDS011;39794;55.782;37.452;2023-05-10T13:54:17;2.75;;;1.65;;
53881;SDS011;39794;55.782;37.452;2023-05-10T13:56:46;3.65;;;1.60;;
53881;SDS011;39794;55.782;37.452;2023-05-10T13:59:15;3.78;;;1.48;;
53881;SDS011;39794;55.782;37.452;2023-05-10T14:01:48;2.22;;;1.40;;
53881;SDS011;39794;55.782;37.452;2023-05-10T14:04:17;3.65;;;1.92;;
53881;SDS011;39794;55.782;37.452;2023-05-10T14:06:46;4.00;;;1.42;;
53881;SDS011;39794;55.782;37.452;2023-05-10T14:09:16;3.95;;;1.48;;
53881;SDS011;39794;55.782;37.452;2023-05-10T14:11:45;2.08;;;1.40;;
53881;SDS011;39794;55.782;37.452;2023-05-10T14:14:14;9.07;;;3.03;;
53881;SDS011;39794;55.782;37.452;2023-05-10T14:16:47;4.25;;;2.30;;
53881;SDS011;39794;55.782;37.452;2023-05-10T14:19:16;4.05;;;1.50;;
53881;SDS011;39794;55.782;37.452;2023-05-10T14:21:48;6.47;;;2.47;;
53881;SDS011;39794;55.782;37.452;2023-05-10T14:24:16;7.60;;;2.45;;
53881;SDS011;39794;55.782;37.452;2023-05-10T14:26:45;2.65;;;1.60;;
53881;SDS011;39794;55.782;37.452;2023-05-10T14:29:16;2.13;;;1.60;;
53881;SDS011;39794;55.782;37.452;2023-05-10T14:31:44;3.50;;;2.40;;
53881;SDS011;39794;55.782;37.452;2023-05-10T14:34:15;6.38;;;1.83;;
53881;SDS011;39794;55.782;37.452;2023-05-10T14:36:43;3.67;;;1.77;;
53881;SDS011;39794;55.782;37.452;2023-05-10T14:39:12;3.92;;;1.80;;
53881;SDS011;39794;55.782;37.452;2023-05-10T14:41:40;2.63;;;1.80;;
53881;SDS011;39794;55.782;37.452;2023-05-10T14:44:11;2.65;;;1.65;;
53881;SDS011;39794;55.782;37.452;2023-05-10T14:46:39;1.70;;;1.40;;
53881;SDS011;39794;55.782;37.452;2023-05-10T14:49:10;2.42;;;1.33;;
53881;SDS011;39794;55.782;37.452;2023-05-10T14:51:38;2.72;;;1.30;;
53881;SDS011;39794;55.782;37.452;2023-05-10T14:54:07;2.55;;;1.70;;
53881;SDS011;39794;55.782;37.452;2023-05-10T14:56:36;3.03;;;1.30;;
53881;SDS011;39794;55.782;37.452;2023-05-10T14:59:05;3.13;;;1.50;;